Terminal Aerodrome Forecast
Issued by NWS

Home | Current Version | Previous Version | Text Only | Print | Product List | Glossary On
Versions: 1 2 3 4 5 6 7 8 9 10 11 12 13 14 15 16 17 18 19 20 21 22
000
FTUS44 KHGX 240543
TAFCXO
TAF
KCXO 240543Z 2406/2506 00000KT P6SM FEW250
     FM241600 17011KT P6SM SCT250
      TEMPO 2419/2423 18011G20KT SCT250
     FM250300 17010KT P6SM BKN025=

USA.gov is the U.S. government's official web portal to all federal, state and local government web resources and services.